W K Kellogg Airport
KBTL : now visible

Airfield :











YOU CAN JOIN US ON...

 
LOGIN :

Register | Disclaimer

   EN    FR    IT 

 









Legend :    VFR   Marginal VFR   IFR   Intensive IFR   Very Intensive IFR
Visi :
Ceiling :
>= 8 km
>= 3000ft
5 to 8 km
1000 to 3000 ft
1500m to 5 km
500 to 1000 ft
800 to 1500m
200 to 500 ft
< 800m
< 200 ft
Symbols :   Thunderstorms  Fog  Heavy snow  Heavy precipitations  Wind > 20 kt






- Airport Elevation : 952 ft


KBTL - W K Kellogg

CURRENT METAR :
  • 260053Z 16009KT 10SM FEW050 25/19 A3001 RMK AO2 SLP156 T02500194

EXPIRED METARs :
  • 252353Z 13010G17KT 10SM SCT060 27/19 A3000 RMK AO2 LTG DSNT N SLP151 T02670189 10300 20261 53004
  • 252253Z 15010KT 10SM FEW065 27/19 A2999 RMK AO2 LTG DSNT N-SE SLP149 T02720194
  • 252219Z 16008KT 10SM FEW120 28/18 A3000 RMK AO2 LTG DSNT NE-SE T02830183

TAF KBTL
Valid from the 26 at 00:00 until the 27 at 00:00 UTC


252341Z 2600/2624 18005KT P6SM VCTS BKN050CB
FM260300 17004KT P6SM BKN060
FM261100 17004KT 5SM BR SCT200
FM261300 17005KT P6SM SCT035
FM261500 18007KT P6SM BKN040
FM261900 18007KT P6SM VCSH BKN050
KZAU FIR / North America



MET'MAP, your aeronautical weather chart ! - Copyright ORBIFLY December 2007 - Disclaimer

ORBIFLY MET'MAP TEAM :

Programming & Development : Alexandra Zaïnal
Concept & original design : Baudouin d'Aumeries
Assistance for programming : Marc-Olivier Méhu
Technical & hardware support : Manuel Goepfert

Contact : metmap@orbifly.com




SOURCES & CREDITS :

   NOAA       Earth
Advisory